sensor_id;sensor_type;location;lat;lon;timestamp;temperature;humidity
65034;DHT22;51601;51.356;12.458;2022-09-02T00:00:57;14.20;74.60
65034;DHT22;51601;51.356;12.458;2022-09-02T00:05:48;14.10;74.80
65034;DHT22;51601;51.356;12.458;2022-09-02T00:10:32;14.10;75.10
65034;DHT22;51601;51.356;12.458;2022-09-02T00:15:10;14.00;75.40
65034;DHT22;51601;51.356;12.458;2022-09-02T00:19:47;14.00;75.60
65034;DHT22;51601;51.356;12.458;2022-09-02T00:24:30;14.00;75.70
65034;DHT22;51601;51.356;12.458;2022-09-02T00:29:16;14.00;75.70
65034;DHT22;51601;51.356;12.458;2022-09-02T00:33:59;14.00;75.80
65034;DHT22;51601;51.356;12.458;2022-09-02T00:38:41;13.90;75.80
65034;DHT22;51601;51.356;12.458;2022-09-02T00:43:23;13.90;75.90
65034;DHT22;51601;51.356;12.458;2022-09-02T00:48:10;13.90;76.00
65034;DHT22;51601;51.356;12.458;2022-09-02T00:52:52;13.80;76.10
65034;DHT22;51601;51.356;12.458;2022-09-02T00:57:37;13.70;76.40
65034;DHT22;51601;51.356;12.458;2022-09-02T01:07:09;13.60;76.90
65034;DHT22;51601;51.356;12.458;2022-09-02T01:11:47;13.50;77.10
65034;DHT22;51601;51.356;12.458;2022-09-02T01:16:27;13.40;77.40
65034;DHT22;51601;51.356;12.458;2022-09-02T01:21:03;13.30;77.60
65034;DHT22;51601;51.356;12.458;2022-09-02T01:25:40;13.30;78.10
65034;DHT22;51601;51.356;12.458;2022-09-02T01:30:17;13.30;78.40
65034;DHT22;51601;51.356;12.458;2022-09-02T01:34:52;13.20;78.60
65034;DHT22;51601;51.356;12.458;2022-09-02T01:39:26;13.10;78.80
65034;DHT22;51601;51.356;12.458;2022-09-02T01:44:04;13.00;79.10
65034;DHT22;51601;51.356;12.458;2022-09-02T01:48:40;13.00;79.70
65034;DHT22;51601;51.356;12.458;2022-09-02T01:53:15;12.90;80.00
65034;DHT22;51601;51.356;12.458;2022-09-02T01:57:50;12.90;80.40
65034;DHT22;51601;51.356;12.458;2022-09-02T02:02:27;12.90;80.70
65034;DHT22;51601;51.356;12.458;2022-09-02T02:07:06;12.70;81.10
65034;DHT22;51601;51.356;12.458;2022-09-02T02:11:42;12.70;81.60
65034;DHT22;51601;51.356;12.458;2022-09-02T02:16:19;12.60;82.10
65034;DHT22;51601;51.356;12.458;2022-09-02T02:20:55;12.60;82.70
65034;DHT22;51601;51.356;12.458;2022-09-02T02:25:29;12.50;83.10
65034;DHT22;51601;51.356;12.458;2022-09-02T02:30:04;12.50;83.60
65034;DHT22;51601;51.356;12.458;2022-09-02T02:34:40;12.40;84.10
65034;DHT22;51601;51.356;12.458;2022-09-02T02:39:16;12.40;84.80
65034;DHT22;51601;51.356;12.458;2022-09-02T02:43:51;12.30;85.30
65034;DHT22;51601;51.356;12.458;2022-09-02T02:48:25;12.40;85.40
65034;DHT22;51601;51.356;12.458;2022-09-02T02:52:59;12.30;85.50
65034;DHT22;51601;51.356;12.458;2022-09-02T02:57:37;12.30;85.70
65034;DHT22;51601;51.356;12.458;2022-09-02T03:02:12;12.20;85.80
65034;DHT22;51601;51.356;12.458;2022-09-02T03:06:47;12.20;86.00
65034;DHT22;51601;51.356;12.458;2022-09-02T03:11:21;12.10;86.40
65034;DHT22;51601;51.356;12.458;2022-09-02T03:15:58;12.10;86.80
65034;DHT22;51601;51.356;12.458;2022-09-02T03:20:33;12.10;87.10
65034;DHT22;51601;51.356;12.458;2022-09-02T03:25:11;12.00;87.20
65034;DHT22;51601;51.356;12.458;2022-09-02T03:29:45;12.00;87.80
65034;DHT22;51601;51.356;12.458;2022-09-02T03:34:21;12.00;88.30
65034;DHT22;51601;51.356;12.458;2022-09-02T03:38:56;12.00;88.90
65034;DHT22;51601;51.356;12.458;2022-09-02T03:43:32;12.00;89.50
65034;DHT22;51601;51.356;12.458;2022-09-02T03:48:06;12.00;89.90
65034;DHT22;51601;51.356;12.458;2022-09-02T03:52:43;11.90;90.10
65034;DHT22;51601;51.356;12.458;2022-09-02T03:57:18;11.90;90.30
65034;DHT22;51601;51.356;12.458;2022-09-02T04:01:55;11.90;90.40
65034;DHT22;51601;51.356;12.458;2022-09-02T04:06:30;11.90;90.50
65034;DHT22;51601;51.356;12.458;2022-09-02T04:11:08;11.90;90.50
65034;DHT22;51601;51.356;12.458;2022-09-02T04:15:44;11.90;90.50
65034;DHT22;51601;51.356;12.458;2022-09-02T04:20:22;11.90;90.50
65034;DHT22;51601;51.356;12.458;2022-09-02T04:24:56;11.80;90.60
65034;DHT22;51601;51.356;12.458;2022-09-02T04:29:32;11.80;90.80
65034;DHT22;51601;51.356;12.458;2022-09-02T04:34:07;11.80;91.10
65034;DHT22;51601;51.356;12.458;2022-09-02T04:38:42;11.90;91.20
65034;DHT22;51601;51.356;12.458;2022-09-02T04:43:20;12.00;91.50
65034;DHT22;51601;51.356;12.458;2022-09-02T04:47:57;12.20;91.90
65034;DHT22;51601;51.356;12.458;2022-09-02T04:52:31;12.70;91.40
65034;DHT22;51601;51.356;12.458;2022-09-02T04:57:06;13.30;90.30
65034;DHT22;51601;51.356;12.458;2022-09-02T05:01:40;13.90;88.10
65034;DHT22;51601;51.356;12.458;2022-09-02T05:06:25;14.50;84.80
65034;DHT22;51601;51.356;12.458;2022-09-02T05:11:04;15.10;79.80
65034;DHT22;51601;51.356;12.458;2022-09-02T05:15:39;15.60;76.90
65034;DHT22;51601;51.356;12.458;2022-09-02T05:20:17;16.20;75.30
65034;DHT22;51601;51.356;12.458;2022-09-02T05:24:53;16.80;71.00
65034;DHT22;51601;51.356;12.458;2022-09-02T05:29:28;17.10;69.00
65034;DHT22;51601;51.356;12.458;2022-09-02T05:34:02;17.50;68.40
65034;DHT22;51601;51.356;12.458;2022-09-02T05:38:37;18.00;65.90
65034;DHT22;51601;51.356;12.458;2022-09-02T05:43:13;18.60;64.70
65034;DHT22;51601;51.356;12.458;2022-09-02T05:47:48;19.20;62.80
65034;DHT22;51601;51.356;12.458;2022-09-02T05:52:22;19.70;61.30
65034;DHT22;51601;51.356;12.458;2022-09-02T05:57:00;20.40;59.80
65034;DHT22;51601;51.356;12.458;2022-09-02T06:01:36;21.00;58.00
65034;DHT22;51601;51.356;12.458;2022-09-02T06:06:10;21.50;56.10
65034;DHT22;51601;51.356;12.458;2022-09-02T06:10:46;22.10;55.70
65034;DHT22;51601;51.356;12.458;2022-09-02T06:15:24;22.90;53.90
65034;DHT22;51601;51.356;12.458;2022-09-02T06:20:02;23.50;51.10
65034;DHT22;51601;51.356;12.458;2022-09-02T06:24:38;23.80;50.30
65034;DHT22;51601;51.356;12.458;2022-09-02T06:29:18;24.30;49.60
65034;DHT22;51601;51.356;12.458;2022-09-02T06:33:55;24.90;48.10
65034;DHT22;51601;51.356;12.458;2022-09-02T06:38:35;25.20;46.80
65034;DHT22;51601;51.356;12.458;2022-09-02T06:43:15;25.60;45.90
65034;DHT22;51601;51.356;12.458;2022-09-02T06:48:12;25.90;44.80
65034;DHT22;51601;51.356;12.458;2022-09-02T06:52:47;26.00;43.30
65034;DHT22;51601;51.356;12.458;2022-09-02T06:57:24;25.90;43.60
65034;DHT22;51601;51.356;12.458;2022-09-02T07:02:06;26.30;42.40
65034;DHT22;51601;51.356;12.458;2022-09-02T07:06:45;26.50;40.80
65034;DHT22;51601;51.356;12.458;2022-09-02T07:11:22;26.60;40.70
65034;DHT22;51601;51.356;12.458;2022-09-02T07:16:00;26.80;39.80
65034;DHT22;51601;51.356;12.458;2022-09-02T07:20:35;26.90;38.60
65034;DHT22;51601;51.356;12.458;2022-09-02T07:25:10;26.90;39.10
65034;DHT22;51601;51.356;12.458;2022-09-02T07:29:45;27.00;38.70
65034;DHT22;51601;51.356;12.458;2022-09-02T07:34:23;27.10;37.40
65034;DHT22;51601;51.356;12.458;2022-09-02T07:38:57;27.10;37.40
65034;DHT22;51601;51.356;12.458;2022-09-02T07:43:32;27.20;36.40
65034;DHT22;51601;51.356;12.458;2022-09-02T07:48:08;27.30;36.20
65034;DHT22;51601;51.356;12.458;2022-09-02T07:52:44;27.40;34.90
65034;DHT22;51601;51.356;12.458;2022-09-02T07:57:18;27.40;35.20
65034;DHT22;51601;51.356;12.458;2022-09-02T08:01:53;27.80;34.50
65034;DHT22;51601;51.356;12.458;2022-09-02T08:06:29;28.00;34.20
65034;DHT22;51601;51.356;12.458;2022-09-02T08:11:08;28.30;33.40
65034;DHT22;51601;51.356;12.458;2022-09-02T08:15:44;28.20;33.50
65034;DHT22;51601;51.356;12.458;2022-09-02T08:20:22;28.30;34.00
65034;DHT22;51601;51.356;12.458;2022-09-02T08:24:56;28.90;32.80
65034;DHT22;51601;51.356;12.458;2022-09-02T08:29:32;28.90;32.80
65034;DHT22;51601;51.356;12.458;2022-09-02T08:34:07;28.70;32.60
65034;DHT22;51601;51.356;12.458;2022-09-02T08:38:42;28.70;33.00
65034;DHT22;51601;51.356;12.458;2022-09-02T08:43:26;28.70;32.70
65034;DHT22;51601;51.356;12.458;2022-09-02T08:48:07;28.50;32.70
65034;DHT22;51601;51.356;12.458;2022-09-02T08:52:54;28.50;32.90
65034;DHT22;51601;51.356;12.458;2022-09-02T08:57:31;28.60;32.60
65034;DHT22;51601;51.356;12.458;2022-09-02T09:02:14;29.00;32.20
65034;DHT22;51601;51.356;12.458;2022-09-02T09:07:03;29.90;31.10
65034;DHT22;51601;51.356;12.458;2022-09-02T09:11:44;29.80;30.50
65034;DHT22;51601;51.356;12.458;2022-09-02T09:16:37;29.60;30.30
65034;DHT22;51601;51.356;12.458;2022-09-02T09:21:12;29.10;30.60
65034;DHT22;51601;51.356;12.458;2022-09-02T09:25:51;29.10;30.60
65034;DHT22;51601;51.356;12.458;2022-09-02T09:30:28;29.00;31.10
65034;DHT22;51601;51.356;12.458;2022-09-02T09:35:04;29.50;29.30
65034;DHT22;51601;51.356;12.458;2022-09-02T09:39:39;29.40;29.30
65034;DHT22;51601;51.356;12.458;2022-09-02T09:44:34;28.90;28.90
65034;DHT22;51601;51.356;12.458;2022-09-02T09:49:09;28.60;29.80
65034;DHT22;51601;51.356;12.458;2022-09-02T09:53:44;28.70;29.00
65034;DHT22;51601;51.356;12.458;2022-09-02T09:58:19;28.50;29.10
65034;DHT22;51601;51.356;12.458;2022-09-02T10:02:57;28.40;29.60
65034;DHT22;51601;51.356;12.458;2022-09-02T10:07:37;28.40;29.30
65034;DHT22;51601;51.356;12.458;2022-09-02T10:12:12;28.20;29.70
65034;DHT22;51601;51.356;12.458;2022-09-02T10:16:54;28.20;31.00
65034;DHT22;51601;51.356;12.458;2022-09-02T10:21:46;28.20;29.60
65034;DHT22;51601;51.356;12.458;2022-09-02T10:26:35;27.90;28.80
65034;DHT22;51601;51.356;12.458;2022-09-02T10:31:15;27.80;29.30
65034;DHT22;51601;51.356;12.458;2022-09-02T10:35:57;27.90;29.30
65034;DHT22;51601;51.356;12.458;2022-09-02T10:40:38;28.10;29.00
65034;DHT22;51601;51.356;12.458;2022-09-02T10:45:23;28.20;28.60
65034;DHT22;51601;51.356;12.458;2022-09-02T10:50:02;28.40;28.90
65034;DHT22;51601;51.356;12.458;2022-09-02T10:54:44;28.80;28.90
65034;DHT22;51601;51.356;12.458;2022-09-02T10:59:27;28.80;28.50
65034;DHT22;51601;51.356;12.458;2022-09-02T11:04:08;28.00;29.10
65034;DHT22;51601;51.356;12.458;2022-09-02T11:08:47;28.30;28.60
65034;DHT22;51601;51.356;12.458;2022-09-02T11:13:27;28.00;29.50
65034;DHT22;51601;51.356;12.458;2022-09-02T11:18:10;27.30;29.60
65034;DHT22;51601;51.356;12.458;2022-09-02T11:22:55;26.60;30.20
65034;DHT22;51601;51.356;12.458;2022-09-02T11:27:36;27.00;29.80
65034;DHT22;51601;51.356;12.458;2022-09-02T11:32:18;27.80;29.10
65034;DHT22;51601;51.356;12.458;2022-09-02T11:36:57;27.70;28.40
65034;DHT22;51601;51.356;12.458;2022-09-02T11:41:43;27.10;29.40
65034;DHT22;51601;51.356;12.458;2022-09-02T11:46:48;26.90;28.70
65034;DHT22;51601;51.356;12.458;2022-09-02T11:51:50;26.30;29.10
65034;DHT22;51601;51.356;12.458;2022-09-02T11:56:34;25.70;29.50
65034;DHT22;51601;51.356;12.458;2022-09-02T12:01:22;26.10;29.30
65034;DHT22;51601;51.356;12.458;2022-09-02T12:06:08;26.60;28.40
65034;DHT22;51601;51.356;12.458;2022-09-02T12:10:57;26.10;28.90
65034;DHT22;51601;51.356;12.458;2022-09-02T12:15:33;25.30;29.30
65034;DHT22;51601;51.356;12.458;2022-09-02T12:20:09;24.70;30.30
65034;DHT22;51601;51.356;12.458;2022-09-02T12:24:49;24.40;30.80
65034;DHT22;51601;51.356;12.458;2022-09-02T12:29:32;24.20;31.50
65034;DHT22;51601;51.356;12.458;2022-09-02T12:39:47;24.30;31.40
65034;DHT22;51601;51.356;12.458;2022-09-02T12:44:27;24.30;33.40
65034;DHT22;51601;51.356;12.458;2022-09-02T12:49:09;24.20;33.70
65034;DHT22;51601;51.356;12.458;2022-09-02T12:53:49;24.10;33.60
65034;DHT22;51601;51.356;12.458;2022-09-02T12:58:27;24.00;34.00
65034;DHT22;51601;51.356;12.458;2022-09-02T13:03:23;23.80;34.30
65034;DHT22;51601;51.356;12.458;2022-09-02T13:13:25;23.70;35.20
65034;DHT22;51601;51.356;12.458;2022-09-02T13:23:26;23.70;34.40
65034;DHT22;51601;51.356;12.458;2022-09-02T13:33:10;23.50;34.60
65034;DHT22;51601;51.356;12.458;2022-09-02T13:37:52;23.40;34.90
65034;DHT22;51601;51.356;12.458;2022-09-02T13:42:28;23.30;35.40
65034;DHT22;51601;51.356;12.458;2022-09-02T13:47:13;23.30;35.40
65034;DHT22;51601;51.356;12.458;2022-09-02T13:51:51;23.40;35.10
65034;DHT22;51601;51.356;12.458;2022-09-02T13:56:28;23.50;35.10
65034;DHT22;51601;51.356;12.458;2022-09-02T14:01:18;23.40;34.60
65034;DHT22;51601;51.356;12.458;2022-09-02T14:05:55;23.30;34.60
65034;DHT22;51601;51.356;12.458;2022-09-02T14:10:34;23.20;34.50
65034;DHT22;51601;51.356;12.458;2022-09-02T14:15:13;23.30;35.00
65034;DHT22;51601;51.356;12.458;2022-09-02T14:19:48;23.40;34.90
65034;DHT22;51601;51.356;12.458;2022-09-02T14:24:29;23.50;34.30
65034;DHT22;51601;51.356;12.458;2022-09-02T14:29:14;23.60;34.70
65034;DHT22;51601;51.356;12.458;2022-09-02T14:33:48;23.80;33.90
65034;DHT22;51601;51.356;12.458;2022-09-02T14:38:25;23.80;34.10
65034;DHT22;51601;51.356;12.458;2022-09-02T14:42:59;23.80;34.30
65034;DHT22;51601;51.356;12.458;2022-09-02T14:47:37;23.80;33.60
65034;DHT22;51601;51.356;12.458;2022-09-02T14:52:16;23.60;33.70
65034;DHT22;51601;51.356;12.458;2022-09-02T14:56:52;23.40;34.20
65034;DHT22;51601;51.356;12.458;2022-09-02T15:01:26;23.30;34.80
65034;DHT22;51601;51.356;12.458;2022-09-02T15:06:02;23.10;35.90
65034;DHT22;51601;51.356;12.458;2022-09-02T15:10:36;23.00;37.00
65034;DHT22;51601;51.356;12.458;2022-09-02T15:15:11;22.80;37.00
65034;DHT22;51601;51.356;12.458;2022-09-02T15:19:46;22.70;37.00
65034;DHT22;51601;51.356;12.458;2022-09-02T15:24:21;22.50;36.70
65034;DHT22;51601;51.356;12.458;2022-09-02T15:28:56;22.30;36.60
65034;DHT22;51601;51.356;12.458;2022-09-02T15:33:30;22.20;36.40
65034;DHT22;51601;51.356;12.458;2022-09-02T15:38:04;22.30;36.60
65034;DHT22;51601;51.356;12.458;2022-09-02T15:42:41;22.50;37.00
65034;DHT22;51601;51.356;12.458;2022-09-02T15:47:15;22.60;37.20
65034;DHT22;51601;51.356;12.458;2022-09-02T15:51:50;22.50;36.90
65034;DHT22;51601;51.356;12.458;2022-09-02T15:56:28;22.40;36.90
65034;DHT22;51601;51.356;12.458;2022-09-02T16:01:04;22.30;37.70
65034;DHT22;51601;51.356;12.458;2022-09-02T16:05:39;22.10;38.10
65034;DHT22;51601;51.356;12.458;2022-09-02T16:10:14;22.10;38.40
65034;DHT22;51601;51.356;12.458;2022-09-02T16:14:49;22.00;38.60
65034;DHT22;51601;51.356;12.458;2022-09-02T16:19:25;22.00;38.60
65034;DHT22;51601;51.356;12.458;2022-09-02T16:24:02;22.00;38.70
65034;DHT22;51601;51.356;12.458;2022-09-02T16:28:38;22.10;39.00
65034;DHT22;51601;51.356;12.458;2022-09-02T16:33:18;22.10;38.80
65034;DHT22;51601;51.356;12.458;2022-09-02T16:37:55;22.10;38.70
65034;DHT22;51601;51.356;12.458;2022-09-02T16:42:30;22.00;39.00
65034;DHT22;51601;51.356;12.458;2022-09-02T16:47:09;21.80;39.30
65034;DHT22;51601;51.356;12.458;2022-09-02T16:51:47;21.70;39.60
65034;DHT22;51601;51.356;12.458;2022-09-02T16:56:22;21.60;39.90
65034;DHT22;51601;51.356;12.458;2022-09-02T17:00:57;21.50;40.00
65034;DHT22;51601;51.356;12.458;2022-09-02T17:05:31;21.40;40.40
65034;DHT22;51601;51.356;12.458;2022-09-02T17:10:06;21.30;40.60
65034;DHT22;51601;51.356;12.458;2022-09-02T17:14:41;21.30;41.10
65034;DHT22;51601;51.356;12.458;2022-09-02T17:19:16;21.20;41.50
65034;DHT22;51601;51.356;12.458;2022-09-02T17:23:54;21.00;41.80
65034;DHT22;51601;51.356;12.458;2022-09-02T17:28:28;20.90;42.10
65034;DHT22;51601;51.356;12.458;2022-09-02T17:33:04;20.80;42.60
65034;DHT22;51601;51.356;12.458;2022-09-02T17:37:38;20.70;43.00
65034;DHT22;51601;51.356;12.458;2022-09-02T17:42:12;20.50;43.40
65034;DHT22;51601;51.356;12.458;2022-09-02T17:46:47;20.40;43.70
65034;DHT22;51601;51.356;12.458;2022-09-02T17:51:22;20.40;43.80
65034;DHT22;51601;51.356;12.458;2022-09-02T17:56:02;20.30;43.80
65034;DHT22;51601;51.356;12.458;2022-09-02T18:00:39;20.30;43.80
65034;DHT22;51601;51.356;12.458;2022-09-02T18:05:20;20.20;44.10
65034;DHT22;51601;51.356;12.458;2022-09-02T18:10:02;20.10;44.00
65034;DHT22;51601;51.356;12.458;2022-09-02T18:14:41;20.10;44.00
65034;DHT22;51601;51.356;12.458;2022-09-02T18:19:32;19.90;44.20
65034;DHT22;51601;51.356;12.458;2022-09-02T18:24:13;19.80;44.50
65034;DHT22;51601;51.356;12.458;2022-09-02T18:28:58;19.70;44.70
65034;DHT22;51601;51.356;12.458;2022-09-02T18:33:54;19.60;45.80
65034;DHT22;51601;51.356;12.458;2022-09-02T18:38:38;19.50;45.30
65034;DHT22;51601;51.356;12.458;2022-09-02T18:43:21;19.40;45.60
65034;DHT22;51601;51.356;12.458;2022-09-02T18:48:01;19.30;45.80
65034;DHT22;51601;51.356;12.458;2022-09-02T18:52:41;19.20;46.10
65034;DHT22;51601;51.356;12.458;2022-09-02T18:57:15;19.20;46.20
65034;DHT22;51601;51.356;12.458;2022-09-02T19:01:50;19.10;46.40
65034;DHT22;51601;51.356;12.458;2022-09-02T19:06:31;19.10;46.60
65034;DHT22;51601;51.356;12.458;2022-09-02T19:11:09;19.00;46.80
65034;DHT22;51601;51.356;12.458;2022-09-02T19:15:44;18.90;47.20
65034;DHT22;51601;51.356;12.458;2022-09-02T19:20:19;18.70;47.70
65034;DHT22;51601;51.356;12.458;2022-09-02T19:24:58;18.60;48.10
65034;DHT22;51601;51.356;12.458;2022-09-02T19:29:38;18.40;48.40
65034;DHT22;51601;51.356;12.458;2022-09-02T19:34:13;18.20;48.70
65034;DHT22;51601;51.356;12.458;2022-09-02T19:38:48;18.20;49.10
65034;DHT22;51601;51.356;12.458;2022-09-02T19:43:24;18.10;49.40
65034;DHT22;51601;51.356;12.458;2022-09-02T19:47:58;18.00;49.80
65034;DHT22;51601;51.356;12.458;2022-09-02T19:52:42;17.90;50.10
65034;DHT22;51601;51.356;12.458;2022-09-02T19:57:16;17.80;50.40
65034;DHT22;51601;51.356;12.458;2022-09-02T20:01:52;17.80;50.60
65034;DHT22;51601;51.356;12.458;2022-09-02T20:06:26;17.70;50.80
65034;DHT22;51601;51.356;12.458;2022-09-02T20:11:02;17.60;51.00
65034;DHT22;51601;51.356;12.458;2022-09-02T20:15:37;17.60;51.30
65034;DHT22;51601;51.356;12.458;2022-09-02T20:20:16;17.60;51.30
65034;DHT22;51601;51.356;12.458;2022-09-02T20:24:50;17.60;51.30
65034;DHT22;51601;51.356;12.458;2022-09-02T20:29:33;17.50;51.30
65034;DHT22;51601;51.356;12.458;2022-09-02T20:34:20;17.60;51.40
65034;DHT22;51601;51.356;12.458;2022-09-02T20:39:20;17.60;51.50
65034;DHT22;51601;51.356;12.458;2022-09-02T20:44:13;17.60;51.50
65034;DHT22;51601;51.356;12.458;2022-09-02T20:49:06;17.60;51.60
65034;DHT22;51601;51.356;12.458;2022-09-02T20:54:07;17.50;51.60
65034;DHT22;51601;51.356;12.458;2022-09-02T20:58:53;17.50;51.70
65034;DHT22;51601;51.356;12.458;2022-09-02T21:03:35;17.50;51.80
65034;DHT22;51601;51.356;12.458;2022-09-02T21:08:18;17.50;51.80
65034;DHT22;51601;51.356;12.458;2022-09-02T21:13:02;17.50;51.80
65034;DHT22;51601;51.356;12.458;2022-09-02T21:17:42;17.50;52.70
65034;DHT22;51601;51.356;12.458;2022-09-02T21:22:24;17.50;52.00
65034;DHT22;51601;51.356;12.458;2022-09-02T21:27:03;17.40;52.20
65034;DHT22;51601;51.356;12.458;2022-09-02T21:31:44;17.40;52.40
65034;DHT22;51601;51.356;12.458;2022-09-02T21:36:27;17.30;52.60
65034;DHT22;51601;51.356;12.458;2022-09-02T21:41:16;17.30;52.70
65034;DHT22;51601;51.356;12.458;2022-09-02T21:46:00;17.30;52.90
65034;DHT22;51601;51.356;12.458;2022-09-02T21:50:43;17.20;52.80
65034;DHT22;51601;51.356;12.458;2022-09-02T21:55:45;17.20;52.90
65034;DHT22;51601;51.356;12.458;2022-09-02T22:00:21;17.20;53.00
65034;DHT22;51601;51.356;12.458;2022-09-02T22:05:05;17.20;53.00
65034;DHT22;51601;51.356;12.458;2022-09-02T22:09:42;17.20;53.10
65034;DHT22;51601;51.356;12.458;2022-09-02T22:14:22;17.20;53.20
65034;DHT22;51601;51.356;12.458;2022-09-02T22:19:02;17.20;53.30
65034;DHT22;51601;51.356;12.458;2022-09-02T22:23:42;17.10;53.30
65034;DHT22;51601;51.356;12.458;2022-09-02T22:28:20;17.10;53.60
65034;DHT22;51601;51.356;12.458;2022-09-02T22:33:02;17.10;53.90
65034;DHT22;51601;51.356;12.458;2022-09-02T22:37:45;17.00;54.10
65034;DHT22;51601;51.356;12.458;2022-09-02T22:42:24;17.00;54.10
65034;DHT22;51601;51.356;12.458;2022-09-02T22:47:07;17.00;54.30
65034;DHT22;51601;51.356;12.458;2022-09-02T22:52:06;17.00;54.40
65034;DHT22;51601;51.356;12.458;2022-09-02T22:57:03;17.00;54.50
65034;DHT22;51601;51.356;12.458;2022-09-02T23:01:48;17.00;54.70
65034;DHT22;51601;51.356;12.458;2022-09-02T23:06:27;16.90;54.80
65034;DHT22;51601;51.356;12.458;2022-09-02T23:11:07;16.90;55.00
65034;DHT22;51601;51.356;12.458;2022-09-02T23:15:49;16.90;55.20
65034;DHT22;51601;51.356;12.458;2022-09-02T23:20:38;16.80;55.30
65034;DHT22;51601;51.356;12.458;2022-09-02T23:25:29;16.70;55.40
65034;DHT22;51601;51.356;12.458;2022-09-02T23:30:07;16.70;55.70
65034;DHT22;51601;51.356;12.458;2022-09-02T23:39:52;16.60;56.20
65034;DHT22;51601;51.356;12.458;2022-09-02T23:44:28;16.50;57.00
65034;DHT22;51601;51.356;12.458;2022-09-02T23:49:09;16.50;56.40
65034;DHT22;51601;51.356;12.458;2022-09-02T23:53:58;16.40;56.70
65034;DHT22;51601;51.356;12.458;2022-09-02T23:58:56;16.40;56.80
